Time;durP1;ratioP1;P1;durP2;ratioP2;P2;SDS_P1;SDS_P2;PMS_P1;PMS_P2;Temp;Humidity;BMP_temperature;BMP_pressure;BME280_temperature;BME280_humidity;BME280_pressure;Samples;Min_cycle;Max_cycle;Signal;HPM_P1;HPM_P2
2023/09/16 00:00:11;;;;;;;14.27;8.63;;;13.40;99.90;;;;;;4943496;28;151827;-71
2023/09/16 00:02:38;;;;;;;14.43;8.80;;;13.40;99.90;;;;;;4921332;28;20055;-70
2023/09/16 00:05:04;;;;;;;14.18;8.05;;;13.30;99.90;;;;;;4931413;28;211444;-71
2023/09/16 00:07:33;;;;;;;13.77;8.18;;;13.30;99.90;;;;;;4923782;28;20517;-71
2023/09/16 00:10:00;;;;;;;13.25;7.60;;;13.20;99.90;;;;;;4945009;28;204267;-71
2023/09/16 00:12:27;;;;;;;17.08;9.32;;;13.20;99.90;;;;;;4938497;28;20058;-70
2023/09/16 00:14:53;;;;;;;15.50;10.00;;;13.20;99.90;;;;;;4927939;28;66862;-71
2023/09/16 00:17:19;;;;;;;14.80;9.43;;;13.20;99.90;;;;;;4947760;28;20059;-71
2023/09/16 00:19:45;;;;;;;16.13;9.60;;;13.10;99.90;;;;;;4901240;28;154009;-71
2023/09/16 00:22:11;;;;;;;14.63;9.52;;;13.10;99.90;;;;;;4947446;28;20144;-71
2023/09/16 00:24:39;;;;;;;13.98;9.18;;;13.00;99.90;;;;;;4920880;28;88964;-71
2023/09/16 00:27:05;;;;;;;15.82;10.25;;;13.00;99.90;;;;;;4949907;28;20059;-71
2023/09/16 00:29:31;;;;;;;14.77;10.35;;;12.90;99.90;;;;;;4916036;28;200038;-72
2023/09/16 00:31:57;;;;;;;15.30;9.95;;;13.00;99.90;;;;;;4948781;28;20051;-71
2023/09/16 00:34:23;;;;;;;14.18;10.48;;;12.90;99.90;;;;;;4910962;28;20047;-71
2023/09/16 00:36:49;;;;;;;13.55;8.70;;;12.80;99.90;;;;;;4946333;28;20077;-72
2023/09/16 00:39:16;;;;;;;15.95;10.50;;;12.80;99.90;;;;;;4900412;28;227908;-71
2023/09/16 00:41:42;;;;;;;14.40;10.70;;;12.80;99.90;;;;;;4944418;28;20055;-71
2023/09/16 00:44:08;;;;;;;12.68;9.05;;;12.80;99.90;;;;;;4898556;28;272643;-71
2023/09/16 00:46:34;;;;;;;15.13;9.05;;;12.80;99.90;;;;;;4943508;28;20058;-71
2023/09/16 00:49:00;;;;;;;13.80;9.43;;;12.80;99.90;;;;;;4921406;28;81966;-71
2023/09/16 00:51:27;;;;;;;14.73;9.00;;;12.70;99.90;;;;;;4950804;28;21338;-71
2023/09/16 00:53:53;;;;;;;14.27;9.57;;;12.70;99.90;;;;;;4902943;28;180596;-71
2023/09/16 00:56:19;;;;;;;18.92;9.77;;;12.60;99.90;;;;;;4947531;28;20055;-72
2023/09/16 00:58:45;;;;;;;14.30;9.52;;;12.60;99.90;;;;;;4900172;28;229829;-71
2023/09/16 01:01:14;;;;;;;15.65;9.82;;;12.60;99.90;;;;;;4949039;28;20067;-70
2023/09/16 01:03:41;;;;;;;13.50;9.63;;;12.60;99.90;;;;;;4903148;28;182100;-70
2023/09/16 01:06:10;;;;;;;18.38;11.50;;;12.60;99.90;;;;;;4946084;28;20055;-71
2023/09/16 01:08:36;;;;;;;13.65;9.38;;;12.60;99.90;;;;;;4906934;28;55711;-71
2023/09/16 01:11:05;;;;;;;16.88;11.00;;;12.50;99.90;;;;;;4948034;28;20062;-71
2023/09/16 01:13:34;;;;;;;14.82;9.48;;;12.50;99.90;;;;;;4882395;28;171892;-71
2023/09/16 01:16:22;;;;;;;14.27;9.75;;;12.50;99.90;;;;;;4948635;28;20051;-71
2023/09/16 01:18:54;;;;;;;13.43;8.90;;;12.50;99.90;;;;;;4916358;28;147225;-71
2023/09/16 01:21:22;;;;;;;15.45;10.07;;;12.40;99.90;;;;;;4955602;28;20070;-70
2023/09/16 01:23:48;;;;;;;12.80;8.10;;;12.40;99.90;;;;;;4903834;28;20066;-70
2023/09/16 01:26:14;;;;;;;14.13;9.48;;;12.40;99.90;;;;;;4945141;28;20047;-70
2023/09/16 01:28:40;;;;;;;12.48;8.73;;;12.40;99.90;;;;;;4909507;28;20043;-70
2023/09/16 01:31:08;;;;;;;13.43;8.20;;;12.40;99.90;;;;;;4946978;28;20521;-70
2023/09/16 01:33:39;;;;;;;13.95;9.55;;;12.40;99.90;;;;;;4903381;28;62928;-70
2023/09/16 01:36:07;;;;;;;;;;;12.40;99.90;;;;;;4948525;28;20051;-70
2023/09/16 01:38:37;;;;;;;17.05;11.30;;;12.40;99.90;;;;;;4897784;28;229653;-70
2023/09/16 01:41:05;;;;;;;13.65;8.90;;;12.40;99.90;;;;;;4946536;28;20521;-69
2023/09/16 01:43:31;;;;;;;15.98;11.10;;;12.40;99.90;;;;;;4906581;28;43888;-69
2023/09/16 01:45:57;;;;;;;18.02;10.88;;;12.30;99.90;;;;;;4952670;28;20054;-69
2023/09/16 01:48:23;;;;;;;13.82;10.45;;;12.30;99.90;;;;;;4888581;28;139332;-70
2023/09/16 01:50:49;;;;;;;13.80;8.57;;;12.30;99.90;;;;;;4948023;28;20464;-71
2023/09/16 01:53:16;;;;;;;12.05;8.95;;;12.30;99.90;;;;;;4892923;28;197097;-71
2023/09/16 01:55:42;;;;;;;16.60;11.82;;;12.30;99.90;;;;;;4945706;28;20059;-71
2023/09/16 01:58:08;;;;;;;15.40;10.63;;;12.30;99.90;;;;;;4905787;28;84041;-69
2023/09/16 02:00:35;;;;;;;13.27;9.48;;;12.20;99.90;;;;;;4940574;28;20047;-70
2023/09/16 02:03:01;;;;;;;15.43;10.83;;;12.20;99.90;;;;;;4899378;28;156802;-70
2023/09/16 02:05:27;;;;;;;15.35;10.73;;;12.20;99.90;;;;;;4948484;28;20066;-70
2023/09/16 02:07:53;;;;;;;13.77;9.70;;;12.20;99.90;;;;;;4906424;28;77899;-70
2023/09/16 02:10:19;;;;;;;16.58;10.88;;;12.10;99.90;;;;;;4943427;28;20421;-69
2023/09/16 02:12:45;;;;;;;14.57;9.65;;;12.10;99.90;;;;;;4920018;28;20044;-70
2023/09/16 02:15:12;;;;;;;14.73;10.48;;;12.10;99.90;;;;;;4941347;28;214847;-70
2023/09/16 02:17:41;;;;;;;14.80;10.82;;;12.10;99.90;;;;;;4915491;28;20059;-70
2023/09/16 02:20:10;;;;;;;14.70;11.23;;;12.00;99.90;;;;;;4917956;28;130204;-69
2023/09/16 02:22:38;;;;;;;14.30;10.07;;;12.00;99.90;;;;;;4917771;28;20052;-71
2023/09/16 02:25:04;;;;;;;13.73;10.18;;;12.00;99.90;;;;;;4924398;28;235116;-70
2023/09/16 02:27:30;;;;;;;13.57;9.55;;;12.00;99.90;;;;;;4920557;28;20489;-70
2023/09/16 02:29:56;;;;;;;14.88;10.05;;;11.90;99.90;;;;;;4932054;28;234682;-70
2023/09/16 02:32:23;;;;;;;15.40;9.90;;;12.00;99.90;;;;;;4947201;28;20109;-70
2023/09/16 02:34:49;;;;;;;13.75;9.85;;;12.00;99.90;;;;;;4918229;28;137806;-70
2023/09/16 02:37:15;;;;;;;14.77;10.98;;;11.90;99.90;;;;;;4942841;28;20050;-70
2023/09/16 02:39:41;;;;;;;17.90;12.38;;;11.90;99.90;;;;;;4899956;28;187019;-70
2023/09/16 02:42:07;;;;;;;16.05;12.02;;;11.90;99.90;;;;;;4943931;28;20055;-70
2023/09/16 02:44:33;;;;;;;17.48;13.52;;;11.80;99.90;;;;;;4910768;28;20596;-70
2023/09/16 02:46:59;;;;;;;14.73;9.63;;;11.80;99.90;;;;;;4947062;28;20036;-70
2023/09/16 02:49:26;;;;;;;12.80;9.02;;;11.80;99.90;;;;;;4909256;28;20061;-70
2023/09/16 02:51:52;;;;;;;15.55;10.70;;;11.80;99.90;;;;;;4942596;28;20051;-70
2023/09/16 02:54:18;;;;;;;14.10;10.90;;;11.70;99.90;;;;;;4888507;28;205314;-70
2023/09/16 02:56:44;;;;;;;15.68;11.30;;;11.70;99.90;;;;;;4944584;28;20422;-70
2023/09/16 02:59:10;;;;;;;15.90;12.52;;;11.70;99.90;;;;;;4907913;28;20051;-69
2023/09/16 03:01:36;;;;;;;14.98;11.23;;;11.70;99.90;;;;;;4944264;28;20047;-69
2023/09/16 03:04:03;;;;;;;17.33;12.70;;;11.70;99.90;;;;;;4906905;28;20078;-71
2023/09/16 03:06:29;;;;;;;15.68;10.55;;;11.70;99.90;;;;;;4944718;28;20043;-70
2023/09/16 03:08:55;;;;;;;17.45;12.13;;;11.60;99.90;;;;;;4913251;28;20055;-70
2023/09/16 03:11:21;;;;;;;15.88;10.30;;;11.60;99.90;;;;;;4942724;28;20058;-69
2023/09/16 03:13:48;;;;;;;13.07;9.30;;;11.60;99.90;;;;;;4915589;28;20062;-70
2023/09/16 03:16:19;;;;;;;19.08;12.05;;;11.60;99.90;;;;;;4940779;28;20058;-70
2023/09/16 03:18:46;;;;;;;;;;;11.70;99.90;;;;;;4915233;28;20051;-69
2023/09/16 03:21:14;;;;;;;15.73;10.02;;;11.60;99.90;;;;;;4948870;28;20487;-70
2023/09/16 03:23:40;;;;;;;13.93;9.93;;;11.60;99.90;;;;;;4909577;28;20047;-69
2023/09/16 03:26:07;;;;;;;16.23;10.80;;;11.60;99.90;;;;;;4950413;28;20039;-70
2023/09/16 03:28:33;;;;;;;14.23;9.68;;;11.60;99.90;;;;;;4916230;28;20050;-70
2023/09/16 03:31:00;;;;;;;12.63;9.27;;;11.60;99.90;;;;;;4945274;28;20522;-70
2023/09/16 03:33:26;;;;;;;13.95;9.90;;;11.50;99.90;;;;;;4908914;28;20060;-69
2023/09/16 03:35:52;;;;;;;13.32;8.70;;;11.60;99.90;;;;;;4946994;28;20051;-69
2023/09/16 03:38:18;;;;;;;13.45;9.70;;;11.50;99.90;;;;;;4896123;28;20039;-68
2023/09/16 03:40:44;;;;;;;13.32;9.27;;;11.50;99.90;;;;;;4948635;28;20047;-70
2023/09/16 03:43:10;;;;;;;12.95;9.65;;;11.50;99.90;;;;;;4911454;28;20056;-69
2023/09/16 03:45:36;;;;;;;12.95;8.57;;;11.40;99.90;;;;;;4950068;28;20055;-70
2023/09/16 03:48:03;;;;;;;13.95;9.90;;;11.40;99.90;;;;;;4913350;28;20051;-70
2023/09/16 03:50:30;;;;;;;13.30;9.82;;;11.40;99.90;;;;;;4934454;29;20066;-71
2023/09/16 03:52:56;;;;;;;12.77;9.48;;;11.40;99.90;;;;;;4900902;28;23529;-71
2023/09/16 03:55:23;;;;;;;13.45;9.15;;;11.30;99.90;;;;;;4939810;28;20051;-70
2023/09/16 03:57:49;;;;;;;12.85;10.25;;;11.30;99.90;;;;;;4916268;28;20095;-68
2023/09/16 04:00:15;;;;;;;11.27;8.30;;;11.30;99.90;;;;;;4959791;28;20051;-69
2023/09/16 04:02:41;;;;;;;13.23;8.60;;;11.30;99.90;;;;;;4908425;28;20067;-69
2023/09/16 04:05:08;;;;;;;13.90;9.23;;;11.30;99.90;;;;;;4943163;28;20056;-69
2023/09/16 04:07:34;;;;;;;12.75;8.73;;;11.30;99.90;;;;;;4910837;28;20732;-69
2023/09/16 04:10:00;;;;;;;12.23;8.57;;;11.20;99.90;;;;;;4959019;28;20050;-69
2023/09/16 04:12:27;;;;;;;12.82;7.95;;;11.20;99.90;;;;;;4938920;28;20437;-69
2023/09/16 04:14:53;;;;;;;12.68;8.07;;;11.20;99.90;;;;;;4885534;28;20058;-70
2023/09/16 04:17:20;;;;;;;12.20;8.98;;;11.20;99.90;;;;;;4942254;28;20055;-70
2023/09/16 04:19:46;;;;;;;12.07;7.88;;;11.30;99.90;;;;;;4901205;28;20046;-70
2023/09/16 04:22:12;;;;;;;11.63;8.15;;;11.30;99.90;;;;;;4945988;28;20418;-70
2023/09/16 04:24:39;;;;;;;11.88;8.65;;;11.20;99.90;;;;;;4920717;28;20046;-69
2023/09/16 04:27:05;;;;;;;14.25;9.45;;;11.20;99.90;;;;;;4949569;28;20058;-70
2023/09/16 04:29:31;;;;;;;12.88;8.60;;;11.20;99.90;;;;;;4910729;28;20039;-70
2023/09/16 04:32:00;;;;;;;11.68;8.38;;;11.20;99.90;;;;;;4947014;28;20048;-71
2023/09/16 04:34:26;;;;;;;13.70;10.00;;;11.20;99.90;;;;;;4905687;28;20054;-69
2023/09/16 04:36:54;;;;;;;13.02;8.60;;;11.20;99.90;;;;;;4941984;28;20747;-69
2023/09/16 04:39:24;;;;;;;13.70;10.18;;;11.10;99.90;;;;;;4923206;28;20581;-70
2023/09/16 04:41:56;;;;;;;15.00;9.57;;;11.10;99.90;;;;;;4944028;28;20124;-68
2023/09/16 04:44:23;;;;;;;14.13;9.52;;;11.10;99.90;;;;;;4915118;28;20062;-69
2023/09/16 04:46:53;;;;;;;14.90;10.27;;;11.10;99.90;;;;;;4946291;28;20074;-69
2023/09/16 04:49:20;;;;;;;13.88;9.98;;;11.10;99.90;;;;;;4909196;28;20050;-69
2023/09/16 04:51:46;;;;;;;16.58;12.15;;;11.00;99.90;;;;;;4945086;28;20074;-69
2023/09/16 04:54:12;;;;;;;15.65;11.25;;;11.00;99.90;;;;;;4895540;28;65143;-69
2023/09/16 04:56:38;;;;;;;13.45;9.75;;;11.00;99.90;;;;;;4946645;28;20047;-69
2023/09/16 04:59:05;;;;;;;15.63;12.05;;;11.00;99.90;;;;;;4921850;28;20066;-69
2023/09/16 05:01:32;;;;;;;14.73;11.32;;;11.00;99.90;;;;;;4947739;28;20071;-70
2023/09/16 05:03:59;;;;;;;13.40;9.60;;;10.90;99.90;;;;;;4913963;28;20046;-70
2023/09/16 05:06:25;;;;;;;15.80;11.65;;;11.00;99.90;;;;;;4947016;28;20047;-70
2023/09/16 05:08:54;;;;;;;16.23;12.25;;;11.00;99.90;;;;;;4919904;28;20047;-69
2023/09/16 05:11:20;;;;;;;13.77;10.43;;;11.00;99.90;;;;;;4950306;28;20062;-69
2023/09/16 05:13:46;;;;;;;16.42;12.10;;;10.90;99.90;;;;;;4909429;28;20050;-69
2023/09/16 05:16:12;;;;;;;16.10;12.18;;;10.90;99.90;;;;;;4937797;28;20055;-70
2023/09/16 05:18:38;;;;;;;16.58;11.52;;;10.90;99.90;;;;;;4898161;28;20059;-70
2023/09/16 05:21:04;;;;;;;14.98;10.13;;;10.90;99.90;;;;;;4938205;28;20457;-69
2023/09/16 05:23:33;;;;;;;12.30;9.50;;;10.90;99.90;;;;;;4911237;28;20062;-68
2023/09/16 05:25:59;;;;;;;13.35;9.65;;;10.90;99.90;;;;;;4945018;28;20506;-70
2023/09/16 05:28:27;;;;;;;17.15;11.18;;;10.90;99.90;;;;;;4914058;28;20050;-70
2023/09/16 05:30:56;;;;;;;13.13;9.73;;;10.90;99.90;;;;;;4927721;29;20391;-70
2023/09/16 05:33:25;;;;;;;14.80;11.68;;;10.90;99.90;;;;;;4916473;28;20059;-69
2023/09/16 05:35:52;;;;;;;15.60;10.40;;;11.00;99.90;;;;;;4948722;28;20051;-69
2023/09/16 05:38:18;;;;;;;13.68;9.52;;;11.00;99.90;;;;;;4906648;28;20093;-69
2023/09/16 05:40:44;;;;;;;16.45;11.50;;;11.00;99.90;;;;;;4945306;28;20059;-69
2023/09/16 05:43:10;;;;;;;19.02;12.25;;;11.00;99.90;;;;;;4905992;28;20055;-69
2023/09/16 05:45:37;;;;;;;16.17;12.43;;;11.00;99.90;;;;;;4941008;28;20059;-68
2023/09/16 05:48:04;;;;;;;14.68;10.70;;;11.10;99.90;;;;;;4908916;28;20047;-70
2023/09/16 05:50:30;;;;;;;16.40;10.48;;;11.10;99.90;;;;;;4953712;28;20063;-69
2023/09/16 05:52:56;;;;;;;16.70;11.93;;;11.10;99.90;;;;;;4895294;28;143727;-69
2023/09/16 05:55:23;;;;;;;18.23;13.65;;;11.10;99.90;;;;;;4936272;28;20437;-70
2023/09/16 05:57:49;;;;;;;19.50;15.70;;;11.20;99.90;;;;;;4905173;28;20048;-68
2023/09/16 06:00:16;;;;;;;18.98;13.82;;;11.20;99.90;;;;;;4958704;28;20059;-70
2023/09/16 06:02:42;;;;;;;16.65;12.82;;;11.30;99.90;;;;;;4905470;28;20431;-70
2023/09/16 06:05:09;;;;;;;18.52;14.60;;;11.30;99.90;;;;;;4939842;28;20062;-69
2023/09/16 06:07:39;;;;;;;18.58;13.70;;;11.30;99.90;;;;;;4912243;28;20051;-69
2023/09/16 06:10:06;;;;;;;18.63;13.15;;;11.40;99.90;;;;;;4929798;28;20051;-69
2023/09/16 06:12:33;;;;;;;18.73;13.95;;;11.40;99.90;;;;;;4909367;28;20059;-69
2023/09/16 06:15:00;;;;;;;17.23;13.27;;;11.50;99.90;;;;;;4958420;28;20051;-68
2023/09/16 06:17:26;;;;;;;16.77;12.15;;;11.60;99.90;;;;;;4936122;28;20062;-69
2023/09/16 06:19:54;;;;;;;20.02;15.88;;;11.60;99.90;;;;;;4897268;28;77184;-69
2023/09/16 06:22:24;;;;;;;21.08;16.23;;;11.70;99.90;;;;;;4946703;28;20659;-68
2023/09/16 06:24:51;;;;;;;17.92;14.43;;;11.70;99.90;;;;;;4910664;28;20059;-69
2023/09/16 06:27:18;;;;;;;19.92;15.60;;;11.80;99.90;;;;;;4946526;28;20063;-69
2023/09/16 06:29:46;;;;;;;21.02;16.98;;;11.90;99.90;;;;;;4908713;28;20522;-70
2023/09/16 06:32:13;;;;;;;21.17;15.38;;;11.90;99.90;;;;;;4962836;28;20422;-71
2023/09/16 06:34:39;;;;;;;20.58;15.27;;;12.10;99.90;;;;;;4904567;28;20059;-69
2023/09/16 06:37:06;;;;;;;21.63;16.02;;;12.10;99.90;;;;;;4944199;28;20051;-70
2023/09/16 06:39:33;;;;;;;20.42;16.95;;;12.20;99.90;;;;;;4922475;28;20043;-70
2023/09/16 06:41:59;;;;;;;17.45;13.70;;;12.80;99.90;;;;;;4945443;28;20062;-69
2023/09/16 06:44:25;;;;;;;17.13;12.98;;;13.70;99.90;;;;;;4893577;28;20066;-69
2023/09/16 06:46:51;;;;;;;13.60;10.98;;;14.60;99.90;;;;;;4946708;28;20070;-69
2023/09/16 06:49:17;;;;;;;15.73;10.88;;;15.30;99.90;;;;;;4897479;28;20557;-69
2023/09/16 06:51:44;;;;;;;17.20;10.10;;;16.00;99.90;;;;;;4941605;28;20142;-70
2023/09/16 06:54:10;;;;;;;12.82;9.68;;;16.50;99.90;;;;;;4892247;28;157969;-68
2023/09/16 06:56:36;;;;;;;12.30;8.60;;;16.20;99.90;;;;;;4946555;28;20059;-69
2023/09/16 06:59:03;;;;;;;13.98;8.80;;;16.00;99.90;;;;;;4911580;28;20067;-70
2023/09/16 07:01:29;;;;;;;13.82;9.10;;;16.50;99.90;;;;;;4944638;28;20050;-69
2023/09/16 07:03:55;;;;;;;12.50;8.50;;;17.10;99.90;;;;;;4917030;28;20085;-69
2023/09/16 07:06:21;;;;;;;14.95;9.30;;;17.70;99.90;;;;;;4947377;28;20158;-70
2023/09/16 07:08:47;;;;;;;11.40;7.70;;;18.20;99.90;;;;;;4913645;28;20048;-70
2023/09/16 07:11:15;;;;;;;13.38;8.55;;;18.60;99.90;;;;;;4945885;28;20078;-69
2023/09/16 07:13:41;;;;;;;13.48;9.25;;;18.90;99.90;;;;;;4918493;28;20055;-69
2023/09/16 07:16:10;;;;;;;14.38;8.90;;;19.30;99.90;;;;;;4950170;28;20047;-70
2023/09/16 07:18:36;;;;;;;13.02;8.57;;;19.80;99.90;;;;;;4915945;28;20043;-69
2023/09/16 07:21:02;;;;;;;11.77;8.10;;;20.10;99.90;;;;;;4953309;28;20117;-70
2023/09/16 07:23:28;;;;;;;14.10;8.77;;;20.50;99.90;;;;;;4910621;28;20035;-69
2023/09/16 07:25:56;;;;;;;13.43;9.15;;;20.90;99.90;;;;;;4952082;28;20054;-69
2023/09/16 07:28:23;;;;;;;12.82;8.45;;;21.30;99.90;;;;;;4905197;28;20047;-70
2023/09/16 07:30:49;;;;;;;12.55;8.35;;;21.50;99.90;;;;;;4937668;28;20148;-71
2023/09/16 07:33:15;;;;;;;13.60;8.55;;;21.70;99.90;;;;;;4910234;28;20055;-70
2023/09/16 07:35:41;;;;;;;12.68;8.70;;;21.90;99.90;;;;;;4950948;28;20062;-69
2023/09/16 07:38:10;;;;;;;13.73;8.40;;;22.20;99.90;;;;;;4909340;28;20427;-71
2023/09/16 07:40:38;;;;;;;11.13;7.45;;;22.60;99.90;;;;;;4957220;28;20066;-70
2023/09/16 07:43:08;;;;;;;11.07;8.00;;;22.90;99.90;;;;;;4910592;28;20063;-69
2023/09/16 07:45:35;;;;;;;12.18;7.53;;;23.20;99.90;;;;;;4951288;28;20063;-69
2023/09/16 07:48:01;;;;;;;12.63;8.05;;;23.50;99.90;;;;;;4913886;28;20924;-69
2023/09/16 07:50:27;;;;;;;12.95;7.15;;;23.80;99.90;;;;;;4959927;28;20485;-70
2023/09/16 07:52:53;;;;;;;11.57;7.50;;;24.00;99.90;;;;;;4892456;28;194520;-69
2023/09/16 07:55:19;;;;;;;12.77;7.40;;;23.90;99.90;;;;;;4943100;28;20699;-69
2023/09/16 07:57:45;;;;;;;13.70;7.53;;;23.60;99.90;;;;;;4910055;28;20125;-71
2023/09/16 08:00:12;;;;;;;13.05;7.53;;;23.40;99.90;;;;;;4944809;28;20047;-70
2023/09/16 08:02:38;;;;;;;12.93;6.85;;;23.20;99.90;;;;;;4909302;28;20059;-70
2023/09/16 08:05:04;;;;;;;11.90;7.65;;;23.00;99.90;;;;;;4916232;28;20063;-70
2023/09/16 08:07:31;;;;;;;12.68;7.80;;;23.00;99.80;;;;;;4921398;28;20052;-71
2023/09/16 08:09:58;;;;;;;11.93;7.60;;;23.00;99.70;;;;;;4951626;28;20502;-69
2023/09/16 08:12:24;;;;;;;12.48;7.75;;;22.80;99.50;;;;;;4948717;28;20066;-69
2023/09/16 08:14:50;;;;;;;12.10;7.15;;;22.60;99.40;;;;;;4903941;28;20055;-69
2023/09/16 08:17:16;;;;;;;11.73;7.50;;;22.40;99.50;;;;;;4944863;28;20058;-69
2023/09/16 08:19:42;;;;;;;12.68;7.80;;;22.20;99.30;;;;;;4920491;28;20054;-69
2023/09/16 08:22:08;;;;;;;13.30;7.93;;;22.00;99.50;;;;;;4948067;28;20051;-69
2023/09/16 08:24:35;;;;;;;13.02;7.97;;;21.90;99.90;;;;;;4924546;28;20058;-69
2023/09/16 08:27:01;;;;;;;16.60;7.72;;;21.80;99.30;;;;;;4947975;28;20062;-70
2023/09/16 08:29:28;;;;;;;12.48;7.72;;;21.70;99.40;;;;;;4906346;28;20043;-69
2023/09/16 08:31:54;;;;;;;14.90;8.23;;;21.70;99.50;;;;;;4961769;28;20035;-70
2023/09/16 08:34:20;;;;;;;12.77;7.93;;;21.70;99.70;;;;;;4905933;28;20059;-69
2023/09/16 08:36:46;;;;;;;11.52;8.43;;;21.80;99.90;;;;;;4943443;28;20074;-70
2023/09/16 08:39:13;;;;;;;13.95;8.05;;;21.70;99.90;;;;;;4920624;28;20054;-70
2023/09/16 08:41:42;;;;;;;12.77;8.32;;;21.70;99.90;;;;;;4948319;28;20062;-69
2023/09/16 08:44:12;;;;;;;12.63;7.97;;;22.20;99.80;;;;;;4902569;28;20059;-70
2023/09/16 08:46:44;;;;;;;11.68;8.45;;;22.40;99.90;;;;;;4949034;28;20842;-70
2023/09/16 08:49:14;;;;;;;12.27;8.65;;;23.10;99.90;;;;;;4905909;28;20074;-70
2023/09/16 08:51:43;;;;;;;12.50;7.90;;;23.80;99.00;;;;;;4944833;28;20059;-70
2023/09/16 08:54:11;;;;;;;11.02;7.60;;;24.40;98.90;;;;;;4896789;28;96249;-70
2023/09/16 08:56:38;;;;;;;13.55;8.10;;;24.90;98.80;;;;;;4938888;28;20055;-70
2023/09/16 08:59:04;;;;;;;13.63;7.57;;;25.50;98.50;;;;;;4914016;28;20057;-70
2023/09/16 09:01:30;;;;;;;11.45;7.05;;;25.90;97.90;;;;;;4945241;28;20059;-70
2023/09/16 09:03:58;;;;;;;10.88;7.07;;;26.40;97.40;;;;;;4904617;28;20051;-72
2023/09/16 09:06:26;;;;;;;12.40;7.13;;;26.80;97.00;;;;;;4944832;28;20047;-70
2023/09/16 09:08:52;;;;;;;12.52;6.82;;;27.10;96.10;;;;;;4906473;28;20058;-70
2023/09/16 09:11:19;;;;;;;12.68;7.32;;;27.20;95.70;;;;;;4942335;28;20047;-70
2023/09/16 09:13:46;;;;;;;11.75;6.65;;;27.10;95.10;;;;;;4919169;28;20051;-71
2023/09/16 09:16:16;;;;;;;12.05;6.88;;;27.60;95.30;;;;;;4945413;28;20191;-71
2023/09/16 09:18:46;;;;;;;11.27;6.63;;;28.00;94.20;;;;;;4912699;28;20178;-71
2023/09/16 09:21:13;;;;;;;13.80;6.53;;;28.30;94.00;;;;;;4952856;28;20070;-70
2023/09/16 09:23:41;;;;;;;11.15;6.90;;;28.40;93.50;;;;;;4905101;28;20074;-70
2023/09/16 09:26:07;;;;;;;10.27;6.00;;;28.50;93.40;;;;;;4941195;28;20051;-71
2023/09/16 09:28:33;;;;;;;11.23;6.20;;;28.90;92.70;;;;;;4914390;28;20050;-71
2023/09/16 09:31:00;;;;;;;10.05;5.53;;;28.90;92.10;;;;;;4953860;28;20062;-70
2023/09/16 09:33:28;;;;;;;11.10;6.10;;;29.20;92.10;;;;;;4915694;28;20046;-71
2023/09/16 09:36:17;;;;;;;9.98;5.60;;;29.60;91.50;;;;;;4952246;28;20051;-71
2023/09/16 09:38:46;;;;;;;10.50;4.80;;;29.70;90.40;;;;;;4900762;28;96993;-71
2023/09/16 09:41:13;;;;;;;9.53;4.70;;;30.10;90.60;;;;;;4937335;28;20058;-71
2023/09/16 09:43:39;;;;;;;9.60;4.47;;;30.30;89.40;;;;;;4910073;28;20747;-71
2023/09/16 09:46:05;;;;;;;11.10;4.70;;;30.60;88.60;;;;;;4942654;28;20055;-71
2023/09/16 09:48:33;;;;;;;10.15;4.47;;;30.70;87.80;;;;;;4916808;28;20039;-71
2023/09/16 09:51:02;;;;;;;10.23;4.85;;;30.70;88.10;;;;;;4958850;28;20047;-71
2023/09/16 09:53:30;;;;;;;10.00;4.53;;;31.00;86.90;;;;;;4893405;28;121746;-71
2023/09/16 09:55:56;;;;;;;13.27;5.22;;;30.90;86.80;;;;;;4944423;28;20058;-72
2023/09/16 09:58:24;;;;;;;10.35;5.00;;;31.30;85.90;;;;;;4907279;28;21019;-72
2023/09/16 10:00:51;;;;;;;9.10;5.05;;;31.30;85.00;;;;;;4949383;28;20536;-72
2023/09/16 10:03:19;;;;;;;10.13;4.82;;;31.00;86.20;;;;;;4914839;28;20062;-71
2023/09/16 10:05:45;;;;;;;9.35;4.53;;;30.70;86.20;;;;;;4954042;28;20051;-71
2023/09/16 10:08:11;;;;;;;11.30;4.40;;;30.60;85.10;;;;;;4914799;28;20047;-71
2023/09/16 10:10:38;;;;;;;11.82;5.00;;;29.50;84.70;;;;;;4955662;28;20070;-70
2023/09/16 10:13:04;;;;;;;10.15;4.78;;;28.90;85.30;;;;;;4904590;28;20054;-72
2023/09/16 10:15:34;;;;;;;11.60;4.35;;;28.30;86.20;;;;;;4920976;28;20059;-72
2023/09/16 10:18:00;;;;;;;9.05;4.28;;;28.30;86.20;;;;;;4907403;28;20044;-72
2023/09/16 10:20:35;;;;;;;9.68;4.00;;;29.10;85.80;;;;;;4942038;28;20540;-71
2023/09/16 10:23:02;;;;;;;8.73;4.60;;;29.90;85.80;;;;;;4912488;28;20059;-72
2023/09/16 10:25:29;;;;;;;9.30;3.97;;;30.30;83.30;;;;;;4953502;28;20094;-70
2023/09/16 10:28:05;;;;;;;9.20;4.80;;;30.50;84.10;;;;;;4912756;28;20453;-72
2023/09/16 10:30:33;;;;;;;8.43;4.20;;;29.90;83.70;;;;;;4936197;28;20058;-70
2023/09/16 10:33:00;;;;;;;10.55;4.80;;;29.30;83.90;;;;;;4905973;28;202930;-71
2023/09/16 10:35:30;;;;;;;9.20;4.60;;;29.70;84.30;;;;;;4961720;28;20616;-70
2023/09/16 10:38:00;;;;;;;10.20;4.70;;;30.30;85.10;;;;;;4906304;28;20558;-71
2023/09/16 10:40:27;;;;;;;10.75;4.35;;;30.70;84.40;;;;;;4944638;28;20050;-71
2023/09/16 10:42:54;;;;;;;10.95;4.13;;;30.90;83.70;;;;;;4915905;28;20051;-71
2023/09/16 10:45:21;;;;;;;9.13;4.10;;;31.00;82.70;;;;;;4960559;28;20058;-71
2023/09/16 10:47:49;;;;;;;8.15;3.90;;;31.00;84.10;;;;;;4912975;28;20042;-71
2023/09/16 10:50:19;;;;;;;9.93;3.60;;;31.40;83.50;;;;;;4948450;28;20055;-71
2023/09/16 10:52:51;;;;;;;11.90;3.55;;;31.60;83.40;;;;;;4896498;28;145434;-71
2023/09/16 10:55:44;;;;;;;8.68;3.50;;;31.50;81.20;;;;;;4960081;28;20047;-71
2023/09/16 10:58:21;;;;;;;10.45;3.38;;;31.20;81.40;;;;;;4911578;28;20059;-71
2023/09/16 11:00:53;;;;;;;8.23;3.30;;;31.30;83.10;;;;;;4962515;28;20517;-71
2023/09/16 11:03:27;;;;;;;10.85;3.65;;;31.60;82.50;;;;;;4910434;28;20055;-71
2023/09/16 11:05:53;;;;;;;8.63;3.13;;;31.90;81.30;;;;;;4953204;28;20089;-72
2023/09/16 11:08:19;;;;;;;8.50;3.20;;;32.20;80.90;;;;;;4911470;28;20035;-71
2023/09/16 11:10:46;;;;;;;8.07;3.08;;;32.20;80.70;;;;;;4957107;28;20058;-70
2023/09/16 11:13:13;;;;;;;8.88;3.33;;;32.30;80.80;;;;;;4915754;28;20054;-71
2023/09/16 11:15:41;;;;;;;7.70;3.15;;;32.50;80.40;;;;;;4957828;28;20066;-72
2023/09/16 11:18:12;;;;;;;7.32;2.90;;;32.70;80.70;;;;;;4911042;28;20066;-71
2023/09/16 11:20:39;;;;;;;8.45;2.90;;;33.00;80.30;;;;;;4954110;28;20175;-70
2023/09/16 11:23:07;;;;;;;9.85;3.28;;;33.20;80.10;;;;;;4911900;28;20109;-72
2023/09/16 11:25:35;;;;;;;8.57;2.90;;;33.30;79.10;;;;;;4933463;29;20055;-72
2023/09/16 11:28:06;;;;;;;9.07;2.83;;;33.50;77.20;;;;;;4913421;28;20047;-72
2023/09/16 11:30:33;;;;;;;9.68;3.00;;;33.10;78.70;;;;;;4949864;28;20055;-71
2023/09/16 11:32:59;;;;;;;6.90;2.53;;;33.10;77.20;;;;;;4894301;29;20047;-73
2023/09/16 11:35:28;;;;;;;9.68;2.58;;;33.10;76.60;;;;;;4947492;28;20062;-72
2023/09/16 11:37:58;;;;;;;9.55;3.50;;;32.70;76.00;;;;;;4924418;28;20511;-72
2023/09/16 11:40:28;;;;;;;8.30;2.83;;;32.70;75.40;;;;;;4946382;28;20565;-72
2023/09/16 11:42:55;;;;;;;8.63;3.35;;;32.70;76.20;;;;;;4928305;28;20049;-72
2023/09/16 11:45:23;;;;;;;7.93;2.90;;;32.90;76.50;;;;;;4948584;28;20042;-73
2023/09/16 11:47:50;;;;;;;7.03;2.67;;;33.00;76.20;;;;;;4926589;28;20098;-72
2023/09/16 11:50:20;;;;;;;7.47;2.80;;;33.20;75.60;;;;;;4953365;28;20422;-73
2023/09/16 11:52:47;;;;;;;6.95;2.50;;;33.50;74.60;;;;;;4900025;28;121620;-71
2023/09/16 11:55:14;;;;;;;7.82;2.83;;;33.50;75.90;;;;;;4963559;28;20536;-73
2023/09/16 11:57:41;;;;;;;10.75;2.90;;;33.20;75.00;;;;;;4911073;28;20055;-72
2023/09/16 12:00:09;;;;;;;9.45;3.17;;;33.20;75.60;;;;;;4933738;28;20062;-72
2023/09/16 12:02:36;;;;;;;9.13;2.90;;;32.80;75.00;;;;;;4907776;28;57975;-72
2023/09/16 12:05:03;;;;;;;7.82;2.78;;;32.60;74.80;;;;;;4946072;28;20070;-72
2023/09/16 12:07:32;;;;;;;6.70;2.40;;;32.20;75.00;;;;;;4935973;28;20055;-71
2023/09/16 12:09:59;;;;;;;8.10;2.50;;;32.40;76.20;;;;;;4946627;28;20055;-73
2023/09/16 12:12:29;;;;;;;9.32;2.20;;;32.50;75.80;;;;;;4951368;28;20047;-73
2023/09/16 12:15:02;;;;;;;7.55;2.20;;;31.90;74.50;;;;;;4928701;28;223965;-72
2023/09/16 12:17:28;;;;;;;7.80;2.40;;;31.50;75.20;;;;;;4940094;28;20571;-72
2023/09/16 12:19:56;;;;;;;8.05;2.58;;;31.30;75.10;;;;;;4943867;28;20683;-72
2023/09/16 12:22:23;;;;;;;7.07;2.60;;;31.20;75.50;;;;;;4949673;28;20055;-72
2023/09/16 12:24:54;;;;;;;8.48;2.55;;;30.90;75.50;;;;;;4911930;28;20055;-73
2023/09/16 12:27:22;;;;;;;7.03;2.10;;;30.40;75.30;;;;;;4942346;28;20051;-73
2023/09/16 12:29:48;;;;;;;8.98;2.45;;;30.70;76.10;;;;;;4922161;28;20055;-73
2023/09/16 12:32:17;;;;;;;8.35;2.13;;;31.10;75.90;;;;;;4948597;28;20043;-73
2023/09/16 12:34:44;;;;;;;8.47;2.00;;;31.40;74.40;;;;;;4908168;28;20047;-72